Terminal Aerodrome Forecast
Issued by NWS Rapid City, SD

Home | Current Version | Previous Version | Text Only | Print | Product List | Glossary On
Versions: 1 2 3 4 5 6 7 8 9 10 11 12 13 14
000
FTUS43 KUNR 251700
TAFRAP
TAF
KRAP 251720Z 2518/2618 17016KT P6SM SKC
     FM260000 13008KT P6SM SKC
     FM260600 17005KT P6SM SKC
     FM261500 31008KT P6SM SCT250
     FM261700 34015KT P6SM SCT250=

USA.gov is the U.S. government's official web portal to all federal, state and local government web resources and services.